createdAt,value
2018-03-15T00:00:45.243Z,998.34
2018-03-15T00:01:45.039Z,998.38
2018-03-15T00:02:45.031Z,998.34
2018-03-15T00:03:45.007Z,998.34
2018-03-15T00:04:45.217Z,998.27
2018-03-15T00:05:45.212Z,998.31
2018-03-15T00:06:44.992Z,998.32
2018-03-15T00:07:45.008Z,998.34
2018-03-15T00:08:44.991Z,998.30
2018-03-15T00:09:44.989Z,998.30
2018-03-15T00:10:44.982Z,998.27
2018-03-15T00:11:45.186Z,998.29
2018-03-15T00:12:45.173Z,998.27
2018-03-15T00:13:44.966Z,998.26
2018-03-15T00:14:44.948Z,998.23
2018-03-15T00:15:44.942Z,998.17
2018-03-15T00:16:44.934Z,998.17
2018-03-15T00:17:44.950Z,998.17
2018-03-15T00:18:44.923Z,998.15
2018-03-15T00:19:45.143Z,998.10
2018-03-15T00:20:44.925Z,998.06
2018-03-15T00:21:45.111Z,998.03
2018-03-15T00:22:44.908Z,998.02
2018-03-15T00:23:45.110Z,998.02
2018-03-15T00:24:44.901Z,998.03
2018-03-15T00:25:45.091Z,998.07
2018-03-15T00:26:44.892Z,997.98
2018-03-15T00:27:44.872Z,998.05
2018-03-15T00:28:51.575Z,998.01
2018-03-15T00:29:44.871Z,998.01
2018-03-15T00:30:45.057Z,998.01
2018-03-15T00:31:44.858Z,998.07
2018-03-15T00:32:44.843Z,998.05
2018-03-15T00:33:44.838Z,998.07
2018-03-15T00:34:44.855Z,998.07
2018-03-15T00:35:44.835Z,998.01
2018-03-15T00:36:44.826Z,997.99
2018-03-15T00:37:45.029Z,997.97
2018-03-15T00:38:45.026Z,997.94
2018-03-15T00:39:44.862Z,997.96
2018-03-15T00:40:44.809Z,997.91
2018-03-15T00:41:44.800Z,997.87
2018-03-15T00:42:44.784Z,997.86
2018-03-15T00:43:44.982Z,997.90
2018-03-15T00:44:44.786Z,997.88
2018-03-15T00:45:44.777Z,997.89
2018-03-15T00:46:44.773Z,997.87
2018-03-15T00:47:44.769Z,997.89
2018-03-15T00:48:44.752Z,997.84
2018-03-15T00:49:44.946Z,997.85
2018-03-15T00:50:44.739Z,997.88
2018-03-15T00:51:44.732Z,997.81
2018-03-15T00:52:44.761Z,997.78
2018-03-15T00:53:44.722Z,997.86
2018-03-15T00:54:44.727Z,997.78
2018-03-15T00:55:44.720Z,997.78
2018-03-15T00:56:44.918Z,997.81
2018-03-15T00:57:44.696Z,997.83
2018-03-15T00:58:44.703Z,997.76
2018-03-15T00:59:44.898Z,997.80
2018-03-15T01:00:44.885Z,997.77
2018-03-15T01:01:44.890Z,997.80
2018-03-15T01:02:44.680Z,997.82
2018-03-15T01:03:44.671Z,997.81
2018-03-15T01:04:44.666Z,997.77
2018-03-15T01:05:44.691Z,997.75
2018-03-15T01:06:44.870Z,997.75
2018-03-15T01:07:44.651Z,997.80
2018-03-15T01:08:44.647Z,997.74
2018-03-15T01:09:44.832Z,997.74
2018-03-15T01:10:44.634Z,997.69
2018-03-15T01:11:44.625Z,997.72
2018-03-15T01:12:44.634Z,997.79
2018-03-15T01:13:44.809Z,997.75
2018-03-15T01:14:44.617Z,997.78
2018-03-15T01:15:44.595Z,997.75
2018-03-15T01:16:44.587Z,997.75
2018-03-15T01:17:44.581Z,997.73
2018-03-15T01:18:44.792Z,997.77
2018-03-15T01:19:44.590Z,997.77
2018-03-15T01:20:44.778Z,997.74
2018-03-15T01:21:44.569Z,997.73
2018-03-15T01:22:44.768Z,997.72
2018-03-15T01:23:44.545Z,997.70
2018-03-15T01:24:44.762Z,997.66
2018-03-15T01:25:44.738Z,997.63
2018-03-15T01:26:44.540Z,997.57
2018-03-15T01:27:44.539Z,997.64
2018-03-15T01:28:44.515Z,997.57
2018-03-15T01:29:44.716Z,997.55
2018-03-15T01:30:44.515Z,997.57
2018-03-15T01:31:44.522Z,997.52
2018-03-15T01:32:44.504Z,997.55
2018-03-15T01:33:44.710Z,997.51
2018-03-15T01:34:44.492Z,997.51
2018-03-15T01:35:44.500Z,997.50
2018-03-15T01:36:44.481Z,997.47
2018-03-15T01:37:44.689Z,997.48
2018-03-15T01:38:44.464Z,997.45
2018-03-15T01:39:44.656Z,997.43
2018-03-15T01:40:44.651Z,997.40
2018-03-15T01:41:44.442Z,997.41
2018-03-15T01:42:44.445Z,997.40
2018-03-15T01:43:44.432Z,997.42
2018-03-15T01:44:44.432Z,997.38
2018-03-15T01:45:44.426Z,997.43
2018-03-15T01:46:44.618Z,997.35
2018-03-15T01:47:44.426Z,997.39
2018-03-15T01:48:44.412Z,997.38
2018-03-15T01:49:44.404Z,997.27
2018-03-15T01:50:44.384Z,997.33
2018-03-15T01:51:44.389Z,997.24
2018-03-15T01:52:44.376Z,997.24
2018-03-15T01:53:44.570Z,997.20
2018-03-15T01:54:44.564Z,997.29
2018-03-15T01:55:44.556Z,997.24
2018-03-15T01:56:44.563Z,997.26
2018-03-15T01:57:44.341Z,997.17
2018-03-15T01:58:44.553Z,997.16
2018-03-15T01:59:44.552Z,997.18
2018-03-15T02:00:44.347Z,997.19
2018-03-15T02:01:44.318Z,997.19
2018-03-15T02:02:44.324Z,997.13
2018-03-15T02:03:44.320Z,997.11
2018-03-15T02:04:44.296Z,997.07
2018-03-15T02:05:44.292Z,997.06
2018-03-15T02:06:44.503Z,997.03
2018-03-15T02:07:44.282Z,997.02
2018-03-15T02:08:44.273Z,996.98
2018-03-15T02:09:44.475Z,997.01
2018-03-15T02:10:44.265Z,996.96
2018-03-15T02:11:44.256Z,996.94
2018-03-15T02:12:44.273Z,996.92
2018-03-15T02:13:44.256Z,996.94
2018-03-15T02:14:44.462Z,996.92
2018-03-15T02:15:44.234Z,996.92
2018-03-15T02:16:44.471Z,996.84
2018-03-15T02:17:44.247Z,996.88
2018-03-15T02:18:44.252Z,996.90
2018-03-15T02:19:44.218Z,996.87
2018-03-15T02:20:44.226Z,996.79
2018-03-15T02:21:44.194Z,996.82
2018-03-15T02:22:44.390Z,996.80
2018-03-15T02:23:44.209Z,996.76
2018-03-15T02:24:44.187Z,996.74
2018-03-15T02:25:44.374Z,996.71
2018-03-15T02:26:44.177Z,996.70
2018-03-15T02:27:44.160Z,996.73
2018-03-15T02:28:44.164Z,996.68
2018-03-15T02:29:44.344Z,996.66
2018-03-15T02:30:44.350Z,996.61
2018-03-15T02:31:44.131Z,996.63
2018-03-15T02:32:44.139Z,996.63
2018-03-15T02:33:44.117Z,996.58
2018-03-15T02:34:44.138Z,996.64
2018-03-15T02:35:44.310Z,996.51
2018-03-15T02:36:44.310Z,996.54
2018-03-15T02:37:44.116Z,996.52
2018-03-15T02:38:44.304Z,996.46
2018-03-15T02:39:44.078Z,996.51
2018-03-15T02:40:44.084Z,996.49
2018-03-15T02:41:44.078Z,996.43
2018-03-15T02:42:44.074Z,996.42
2018-03-15T02:43:44.054Z,996.40
2018-03-15T02:44:44.057Z,996.44
2018-03-15T02:45:44.247Z,996.38
2018-03-15T02:46:44.251Z,996.32
2018-03-15T02:47:44.028Z,996.31
2018-03-15T02:48:44.030Z,996.31
2018-03-15T02:49:44.025Z,996.34
2018-03-15T02:50:44.027Z,996.29
2018-03-15T02:51:44.232Z,996.30
2018-03-15T02:52:44.009Z,996.30
2018-03-15T02:53:44.006Z,996.27
2018-03-15T02:54:44.007Z,996.24
2018-03-15T02:55:43.976Z,996.25
2018-03-15T02:56:43.986Z,996.17
2018-03-15T02:57:43.964Z,996.21
2018-03-15T02:58:43.961Z,996.13
2018-03-15T02:59:44.177Z,996.17
2018-03-15T03:00:44.173Z,996.16
2018-03-15T03:01:43.953Z,996.19
2018-03-15T03:02:43.933Z,996.13
2018-03-15T03:03:43.934Z,996.15
2018-03-15T03:04:43.941Z,996.10
2018-03-15T03:05:43.925Z,996.14
2018-03-15T03:06:43.936Z,996.11
2018-03-15T03:07:43.924Z,996.13
2018-03-15T03:08:44.118Z,996.13
2018-03-15T03:09:43.897Z,996.12
2018-03-15T03:10:43.895Z,996.05
2018-03-15T03:11:43.897Z,996.04
2018-03-15T03:12:43.889Z,996.10
2018-03-15T03:13:43.873Z,996.04
2018-03-15T03:14:44.064Z,996.04
2018-03-15T03:15:43.850Z,996.05
2018-03-15T03:16:43.840Z,996.01
2018-03-15T03:17:43.845Z,996.02
2018-03-15T03:18:43.834Z,996.00
2018-03-15T03:19:44.039Z,996.07
2018-03-15T03:20:43.816Z,996.02
2018-03-15T03:21:43.820Z,995.97
2018-03-15T03:22:44.017Z,995.97
2018-03-15T03:23:43.807Z,995.96
2018-03-15T03:24:43.787Z,996.00
2018-03-15T03:25:43.999Z,995.87
2018-03-15T03:26:43.777Z,995.96
2018-03-15T03:27:44.274Z,995.92
2018-03-15T03:28:43.972Z,995.90
2018-03-15T03:29:43.973Z,995.91
2018-03-15T03:30:43.759Z,995.91
2018-03-15T03:31:43.757Z,995.88
2018-03-15T03:32:44.012Z,995.91
2018-03-15T03:33:43.744Z,995.90
2018-03-15T03:34:43.737Z,995.83
2018-03-15T03:35:43.726Z,995.81
2018-03-15T03:36:43.736Z,995.82
2018-03-15T03:37:43.720Z,995.78
2018-03-15T03:38:43.914Z,995.79
2018-03-15T03:39:43.703Z,995.76
2018-03-15T03:40:43.926Z,995.76
2018-03-15T03:41:43.692Z,995.73
2018-03-15T03:42:43.682Z,995.70
2018-03-15T03:43:43.665Z,995.79
2018-03-15T03:44:43.701Z,995.81
2018-03-15T03:45:43.653Z,995.73
2018-03-15T03:46:43.658Z,995.70
2018-03-15T03:47:43.856Z,995.75
2018-03-15T03:48:43.635Z,995.70
2018-03-15T03:49:43.650Z,995.73
2018-03-15T03:50:43.625Z,995.71
2018-03-15T03:51:43.615Z,995.74
2018-03-15T03:52:43.608Z,995.66
2018-03-15T03:53:43.830Z,995.73
2018-03-15T03:54:43.802Z,995.68
2018-03-15T03:55:43.600Z,995.69
2018-03-15T03:56:43.593Z,995.68
2018-03-15T03:57:43.584Z,995.61
2018-03-15T03:58:43.605Z,995.61
2018-03-15T03:59:43.575Z,995.61
2018-03-15T04:00:43.566Z,995.60
2018-03-15T04:01:43.565Z,995.53
2018-03-15T04:02:43.747Z,995.52
2018-03-15T04:03:43.535Z,995.57
2018-03-15T04:04:43.544Z,995.49
2018-03-15T04:05:43.521Z,995.50
2018-03-15T04:06:43.540Z,995.52
2018-03-15T04:07:43.716Z,995.55
2018-03-15T04:08:43.518Z,995.50
2018-03-15T04:09:43.712Z,995.34
2018-03-15T04:10:43.720Z,995.34
2018-03-15T04:11:43.698Z,995.32
2018-03-15T04:12:43.486Z,995.33
2018-03-15T04:13:43.682Z,995.25
2018-03-15T04:14:43.680Z,995.34
2018-03-15T04:15:43.466Z,995.30
2018-03-15T04:16:43.463Z,995.29
2018-03-15T04:17:43.455Z,995.32
2018-03-15T04:18:43.450Z,995.31
2018-03-15T04:19:43.437Z,995.27
2018-03-15T04:20:43.438Z,995.26
2018-03-15T04:21:43.429Z,995.20
2018-03-15T04:22:43.412Z,995.10
2018-03-15T04:23:43.619Z,995.11
2018-03-15T04:24:43.402Z,995.15
2018-03-15T04:25:43.407Z,995.11
2018-03-15T04:26:43.386Z,995.03
2018-03-15T04:27:43.598Z,995.06
2018-03-15T04:28:43.384Z,995.08
2018-03-15T04:29:43.387Z,994.93
2018-03-15T04:30:43.358Z,994.99
2018-03-15T04:31:43.565Z,994.90
2018-03-15T04:32:43.355Z,994.89
2018-03-15T04:33:43.363Z,994.80
2018-03-15T04:34:43.354Z,994.80
2018-03-15T04:35:43.326Z,994.76
2018-03-15T04:36:43.543Z,994.74
2018-03-15T04:37:43.334Z,994.78
2018-03-15T04:38:43.325Z,994.79
2018-03-15T04:39:43.499Z,994.78
2018-03-15T04:40:43.496Z,994.77
2018-03-15T04:41:43.284Z,994.76
2018-03-15T04:42:43.492Z,994.80
2018-03-15T04:43:43.476Z,994.73
2018-03-15T04:44:43.286Z,994.78
2018-03-15T04:45:43.473Z,994.74
2018-03-15T04:46:43.262Z,994.72
2018-03-15T04:47:43.256Z,994.71
2018-03-15T04:48:43.451Z,994.59
2018-03-15T04:49:43.246Z,994.62
2018-03-15T04:50:43.223Z,994.66
2018-03-15T04:51:43.244Z,994.64
2018-03-15T04:52:43.414Z,994.70
2018-03-15T04:53:43.419Z,994.64
2018-03-15T04:54:43.401Z,994.64
2018-03-15T04:55:43.406Z,994.55
2018-03-15T04:56:43.180Z,994.57
2018-03-15T04:57:43.383Z,994.48
2018-03-15T04:58:43.184Z,994.58
2018-03-15T04:59:43.159Z,994.58
2018-03-15T05:00:43.381Z,994.57
2018-03-15T05:01:43.162Z,994.52
2018-03-15T05:02:43.174Z,994.46
2018-03-15T05:03:43.135Z,994.59
2018-03-15T05:04:43.141Z,994.44
2018-03-15T05:05:43.378Z,994.41
2018-03-15T05:06:43.126Z,994.44
2018-03-15T05:07:43.108Z,994.42
2018-03-15T05:08:43.321Z,994.44
2018-03-15T05:09:43.094Z,994.41
2018-03-15T05:10:43.099Z,994.38
2018-03-15T05:11:43.107Z,994.42
2018-03-15T05:12:43.091Z,994.37
2018-03-15T05:13:43.093Z,994.36
2018-03-15T05:14:43.061Z,994.33
2018-03-15T05:15:43.053Z,994.30
2018-03-15T05:16:43.046Z,994.31
2018-03-15T05:17:43.060Z,994.25
2018-03-15T05:18:43.043Z,994.22
2018-03-15T05:19:43.029Z,994.22
2018-03-15T05:20:43.084Z,994.28
2018-03-15T05:21:43.019Z,994.29
2018-03-15T05:22:43.025Z,994.30
2018-03-15T05:23:43.005Z,994.25
2018-03-15T05:24:42.994Z,994.23
2018-03-15T05:25:43.200Z,994.15
2018-03-15T05:26:42.999Z,994.13
2018-03-15T05:27:43.200Z,994.20
2018-03-15T05:28:42.979Z,994.08
2018-03-15T05:29:42.957Z,994.12
2018-03-15T05:30:42.961Z,994.18
2018-03-15T05:31:42.943Z,994.11
2018-03-15T05:32:43.141Z,994.15
2018-03-15T05:33:43.138Z,994.14
2018-03-15T05:34:42.928Z,994.04
2018-03-15T05:35:42.940Z,994.07
2018-03-15T05:36:42.920Z,994.06
2018-03-15T05:37:42.907Z,994.13
2018-03-15T05:38:42.908Z,994.10
2018-03-15T05:39:42.901Z,994.08
2018-03-15T05:40:42.886Z,994.08
2018-03-15T05:41:43.080Z,994.08
2018-03-15T05:42:42.884Z,994.15
2018-03-15T05:43:42.877Z,994.10
2018-03-15T05:44:42.871Z,994.13
2018-03-15T05:45:42.862Z,994.08
2018-03-15T05:46:42.858Z,994.12
2018-03-15T05:47:42.848Z,994.06
2018-03-15T05:48:43.033Z,994.18
2018-03-15T05:49:43.054Z,994.05
2018-03-15T05:50:43.033Z,994.09
2018-03-15T05:51:42.824Z,994.05
2018-03-15T05:52:42.806Z,994.03
2018-03-15T05:53:42.796Z,994.08
2018-03-15T05:54:43.009Z,994.13
2018-03-15T05:55:42.804Z,994.04
2018-03-15T05:56:42.979Z,994.08
2018-03-15T05:57:42.985Z,994.06
2018-03-15T05:58:42.774Z,994.14
2018-03-15T05:59:42.767Z,993.92
2018-03-15T06:00:42.784Z,993.97
2018-03-15T06:01:42.747Z,993.90
2018-03-15T06:02:42.937Z,993.93
2018-03-15T06:03:42.932Z,993.92
2018-03-15T06:04:42.724Z,993.88
2018-03-15T06:05:42.714Z,993.85
2018-03-15T06:06:42.923Z,993.87
2018-03-15T06:07:42.711Z,993.85
2018-03-15T06:08:42.695Z,993.86
2018-03-15T06:09:42.700Z,993.84
2018-03-15T06:10:42.895Z,993.91
2018-03-15T06:11:42.699Z,993.90
2018-03-15T06:12:42.684Z,993.87
2018-03-15T06:13:42.865Z,993.84
2018-03-15T06:14:42.666Z,993.84
2018-03-15T06:15:42.647Z,993.85
2018-03-15T06:16:42.654Z,993.89
2018-03-15T06:17:42.637Z,993.91
2018-03-15T06:18:42.643Z,993.91
2018-03-15T06:19:42.649Z,993.87
2018-03-15T06:20:42.850Z,993.82
2018-03-15T06:21:42.611Z,993.84
2018-03-15T06:22:42.628Z,993.82
2018-03-15T06:23:42.597Z,993.88
2018-03-15T06:24:42.804Z,993.80
2018-03-15T06:25:42.795Z,993.85
2018-03-15T06:26:42.780Z,993.77
2018-03-15T06:27:42.819Z,993.80
2018-03-15T06:28:42.580Z,993.80
2018-03-15T06:29:42.595Z,993.71
2018-03-15T06:30:42.574Z,993.78
2018-03-15T06:31:42.556Z,993.77
2018-03-15T06:32:42.550Z,993.76
2018-03-15T06:33:42.533Z,993.81
2018-03-15T06:34:42.742Z,993.80
2018-03-15T06:35:42.533Z,993.84
2018-03-15T06:36:42.511Z,993.83
2018-03-15T06:37:42.528Z,993.84
2018-03-15T06:38:42.501Z,993.84
2018-03-15T06:39:42.708Z,993.94
2018-03-15T06:40:42.492Z,993.92
2018-03-15T06:41:42.478Z,993.91
2018-03-15T06:42:42.484Z,993.96
2018-03-15T06:43:42.668Z,993.94
2018-03-15T06:44:42.463Z,993.97
2018-03-15T06:45:42.456Z,993.92
2018-03-15T06:46:42.450Z,994.04
2018-03-15T06:47:42.442Z,994.02
2018-03-15T06:48:42.445Z,994.04
2018-03-15T06:49:42.442Z,994.01
2018-03-15T06:50:42.436Z,994.05
2018-03-15T06:51:42.446Z,993.95
2018-03-15T06:52:42.411Z,994.04
2018-03-15T06:53:42.645Z,994.04
2018-03-15T06:54:42.642Z,993.99
2018-03-15T06:55:42.403Z,993.94
2018-03-15T06:56:42.599Z,993.90
2018-03-15T06:57:42.381Z,993.83
2018-03-15T06:58:42.575Z,993.82
2018-03-15T06:59:42.389Z,993.92
2018-03-15T07:00:42.371Z,993.87
2018-03-15T07:01:42.556Z,993.79
2018-03-15T07:02:42.349Z,993.82
2018-03-15T07:03:42.340Z,993.79
2018-03-15T07:04:42.347Z,993.84
2018-03-15T07:05:42.346Z,993.84
2018-03-15T07:06:42.341Z,993.80
2018-03-15T07:07:42.533Z,993.74
2018-03-15T07:08:42.312Z,993.77
2018-03-15T07:09:42.318Z,993.83
2018-03-15T07:10:42.504Z,993.83
2018-03-15T07:11:42.292Z,993.75
2018-03-15T07:12:42.313Z,993.76
2018-03-15T07:13:42.283Z,993.79
2018-03-15T07:14:42.287Z,993.68
2018-03-15T07:15:42.267Z,993.84
2018-03-15T07:16:42.481Z,993.71
2018-03-15T07:17:42.268Z,993.73
2018-03-15T07:18:42.262Z,993.68
2018-03-15T07:19:42.460Z,993.69
2018-03-15T07:20:42.457Z,993.64
2018-03-15T07:21:42.465Z,993.63
2018-03-15T07:22:42.288Z,993.61
2018-03-15T07:23:42.440Z,993.62
2018-03-15T07:24:42.221Z,993.63
2018-03-15T07:25:42.220Z,993.63
2018-03-15T07:26:42.216Z,993.65
2018-03-15T07:27:42.208Z,993.76
2018-03-15T07:28:42.205Z,993.70
2018-03-15T07:29:42.391Z,993.75
2018-03-15T07:30:42.183Z,993.72
2018-03-15T07:31:42.185Z,993.72
2018-03-15T07:32:42.180Z,993.69
2018-03-15T07:33:42.186Z,993.73
2018-03-15T07:34:42.159Z,993.75
2018-03-15T07:35:42.170Z,993.69
2018-03-15T07:36:42.172Z,993.78
2018-03-15T07:37:42.149Z,993.76
2018-03-15T07:38:42.341Z,993.84
2018-03-15T07:39:42.332Z,993.88
2018-03-15T07:40:42.337Z,993.85
2018-03-15T07:41:42.323Z,994.02
2018-03-15T07:42:42.124Z,994.10
2018-03-15T07:43:42.105Z,994.59
2018-03-15T07:44:42.336Z,994.42
2018-03-15T07:45:42.097Z,994.13
2018-03-15T07:46:42.306Z,994.04
2018-03-15T07:47:42.106Z,994.36
2018-03-15T07:48:42.116Z,994.60
2018-03-15T07:49:42.073Z,994.65
2018-03-15T07:50:42.081Z,994.62
2018-03-15T07:51:42.272Z,994.43
2018-03-15T07:52:42.265Z,994.25
2018-03-15T07:53:42.066Z,994.33
2018-03-15T07:54:42.064Z,994.44
2018-03-15T07:55:42.056Z,994.45
2018-03-15T07:56:42.067Z,994.44
2018-03-15T07:57:42.075Z,994.37
2018-03-15T07:58:42.047Z,994.33
2018-03-15T07:59:42.029Z,994.38
2018-03-15T08:00:42.039Z,994.20
2018-03-15T08:01:42.046Z,994.09
2018-03-15T08:02:42.042Z,994.08
2018-03-15T08:03:42.027Z,994.11
2018-03-15T08:04:42.037Z,993.94
2018-03-15T08:05:42.007Z,994.00
2018-03-15T08:06:42.006Z,993.96
2018-03-15T08:07:42.012Z,993.99
2018-03-15T08:08:42.023Z,994.06
2018-03-15T08:09:42.211Z,994.12
2018-03-15T08:10:41.991Z,994.15
2018-03-15T08:11:41.991Z,994.11
2018-03-15T08:12:42.002Z,994.12
2018-03-15T08:13:41.980Z,994.09
2018-03-15T08:14:42.016Z,994.05
2018-03-15T08:15:41.989Z,994.03
2018-03-15T08:16:41.985Z,994.03
2018-03-15T08:17:41.971Z,994.00
2018-03-15T08:18:42.196Z,993.97
2018-03-15T08:19:41.963Z,994.03
2018-03-15T08:20:41.969Z,994.02
2018-03-15T08:21:41.969Z,993.97
2018-03-15T08:22:42.174Z,993.98
2018-03-15T08:23:41.950Z,993.98
2018-03-15T08:24:41.961Z,993.80
2018-03-15T08:25:41.968Z,993.86
2018-03-15T08:26:42.171Z,993.83
2018-03-15T08:27:41.951Z,993.82
2018-03-15T08:28:41.941Z,993.79
2018-03-15T08:29:41.951Z,993.93
2018-03-15T08:30:41.951Z,993.93
2018-03-15T08:31:41.933Z,993.78
2018-03-15T08:32:41.949Z,993.75
2018-03-15T08:33:41.936Z,993.70
2018-03-15T08:34:41.933Z,993.66
2018-03-15T08:35:41.931Z,993.67
2018-03-15T08:36:41.929Z,993.64
2018-03-15T08:37:41.922Z,993.55
2018-03-15T08:38:41.910Z,993.58
2018-03-15T08:39:41.908Z,993.65
2018-03-15T08:40:41.957Z,993.59
2018-03-15T08:41:41.909Z,993.61
2018-03-15T08:42:42.101Z,993.64
2018-03-15T08:43:41.900Z,993.62
2018-03-15T08:44:41.887Z,993.58
2018-03-15T08:45:41.884Z,993.53
2018-03-15T08:46:42.097Z,993.64
2018-03-15T08:47:41.890Z,993.55
2018-03-15T08:48:42.080Z,993.50
2018-03-15T08:49:42.086Z,993.49
2018-03-15T08:50:42.100Z,993.49
2018-03-15T08:51:42.131Z,993.40
2018-03-15T08:52:41.863Z,993.35
2018-03-15T08:53:41.857Z,993.37
2018-03-15T08:54:41.862Z,993.36
2018-03-15T08:55:41.848Z,993.33
2018-03-15T08:56:42.064Z,993.30
2018-03-15T08:57:41.841Z,993.30
2018-03-15T08:58:41.846Z,993.24
2018-03-15T08:59:41.844Z,993.21
2018-03-15T09:00:41.845Z,993.15
2018-03-15T09:01:42.055Z,993.14
2018-03-15T09:02:41.844Z,993.12
2018-03-15T09:03:41.819Z,993.13
2018-03-15T09:04:41.827Z,993.03
2018-03-15T09:05:42.031Z,993.07
2018-03-15T09:06:41.817Z,992.94
2018-03-15T09:07:42.025Z,992.97
2018-03-15T09:08:41.860Z,992.94
2018-03-15T09:09:41.804Z,992.97
2018-03-15T09:10:42.016Z,992.91
2018-03-15T09:11:41.785Z,992.94
2018-03-15T09:12:41.786Z,992.99
2018-03-15T09:13:41.784Z,992.88
2018-03-15T09:14:41.776Z,992.96
2018-03-15T09:15:41.987Z,992.91
2018-03-15T09:16:41.778Z,992.86
2018-03-15T09:17:41.970Z,992.92
2018-03-15T09:18:41.801Z,992.89
2018-03-15T09:19:41.757Z,992.89
2018-03-15T09:20:41.760Z,992.83
2018-03-15T09:21:41.772Z,992.91
2018-03-15T09:22:41.755Z,992.93
2018-03-15T09:23:41.772Z,992.87
2018-03-15T09:24:41.748Z,992.89
2018-03-15T09:25:41.951Z,992.93
2018-03-15T09:26:41.727Z,992.79
2018-03-15T09:27:41.723Z,992.79
2018-03-15T09:28:41.724Z,992.77
2018-03-15T09:29:41.721Z,992.82
2018-03-15T09:30:41.728Z,992.72
2018-03-15T09:31:41.925Z,992.81
2018-03-15T09:32:41.719Z,992.66
2018-03-15T09:33:41.712Z,992.68
2018-03-15T09:34:41.907Z,992.70
2018-03-15T09:35:41.918Z,992.59
2018-03-15T09:36:41.713Z,992.64
2018-03-15T09:37:41.688Z,992.54
2018-03-15T09:38:41.689Z,992.53
2018-03-15T09:39:41.705Z,992.55
2018-03-15T09:40:41.693Z,992.53
2018-03-15T09:41:41.886Z,992.57
2018-03-15T09:42:41.706Z,992.44
2018-03-15T09:43:41.675Z,992.48
2018-03-15T09:44:41.875Z,992.48
2018-03-15T09:45:41.868Z,992.54
2018-03-15T09:46:41.662Z,992.54
2018-03-15T09:47:41.646Z,992.46
2018-03-15T09:48:41.880Z,992.45
2018-03-15T09:49:41.651Z,992.42
2018-03-15T09:50:41.852Z,992.39
2018-03-15T09:51:41.641Z,992.42
2018-03-15T09:52:41.644Z,992.37
2018-03-15T09:53:41.624Z,992.43
2018-03-15T09:54:41.619Z,992.43
2018-03-15T09:55:41.817Z,992.41
2018-03-15T09:56:41.836Z,992.40
2018-03-15T09:57:41.608Z,992.38
2018-03-15T09:58:41.608Z,992.30
2018-03-15T09:59:41.605Z,992.37
2018-03-15T10:00:41.804Z,992.42
2018-03-15T10:01:41.604Z,992.29
2018-03-15T10:02:41.600Z,992.40
2018-03-15T10:03:41.587Z,992.37
2018-03-15T10:04:41.594Z,992.37
2018-03-15T10:05:41.633Z,992.37
2018-03-15T10:06:41.600Z,992.43
2018-03-15T10:07:41.775Z,992.34
2018-03-15T10:08:41.568Z,992.42
2018-03-15T10:09:41.579Z,992.39
2018-03-15T10:10:41.587Z,992.40
2018-03-15T10:11:41.584Z,992.45
2018-03-15T10:12:41.759Z,992.44
2018-03-15T10:13:41.553Z,992.44
2018-03-15T10:14:41.569Z,992.41
2018-03-15T10:15:41.583Z,992.45
2018-03-15T10:16:41.744Z,992.41
2018-03-15T10:17:41.560Z,992.39
2018-03-15T10:18:41.559Z,992.38
2018-03-15T10:19:41.530Z,992.32
2018-03-15T10:20:41.554Z,992.29
2018-03-15T10:21:41.533Z,992.40
2018-03-15T10:22:41.521Z,992.32
2018-03-15T10:23:41.733Z,992.35
2018-03-15T10:24:41.536Z,992.27
2018-03-15T10:25:41.523Z,992.30
2018-03-15T10:26:41.712Z,992.31
2018-03-15T10:27:41.504Z,992.32
2018-03-15T10:28:41.511Z,992.33
2018-03-15T10:29:41.501Z,992.28
2018-03-15T10:30:41.710Z,992.32
2018-03-15T10:31:41.512Z,992.22
2018-03-15T10:32:41.485Z,992.31
2018-03-15T10:33:41.511Z,992.26
2018-03-15T10:34:41.706Z,992.23
2018-03-15T10:35:41.681Z,992.20
2018-03-15T10:36:41.683Z,992.28
2018-03-15T10:37:41.482Z,992.27
2018-03-15T10:38:41.489Z,992.30
2018-03-15T10:39:41.489Z,992.28
2018-03-15T10:40:41.480Z,992.26
2018-03-15T10:41:41.671Z,992.36
2018-03-15T10:42:41.463Z,992.28
2018-03-15T10:43:41.465Z,992.23
2018-03-15T10:44:41.652Z,992.22
2018-03-15T10:45:41.650Z,992.15
2018-03-15T10:46:41.653Z,992.18
2018-03-15T10:47:41.447Z,992.20
2018-03-15T10:48:41.430Z,992.20
2018-03-15T10:49:41.454Z,992.20
2018-03-15T10:50:41.429Z,992.20
2018-03-15T10:51:41.440Z,992.19
2018-03-15T10:52:41.433Z,992.11
2018-03-15T10:53:41.633Z,992.15
2018-03-15T10:54:41.436Z,992.17
2018-03-15T10:55:41.422Z,992.13
2018-03-15T10:56:41.431Z,992.09
2018-03-15T10:57:41.443Z,992.13
2018-03-15T10:58:41.445Z,992.10
2018-03-15T10:59:41.411Z,992.15
2018-03-15T11:00:41.406Z,992.11
2018-03-15T11:01:41.416Z,992.15
2018-03-15T11:02:41.417Z,992.06
2018-03-15T11:03:41.412Z,992.03
2018-03-15T11:04:41.394Z,992.06
2018-03-15T11:05:41.392Z,991.99
2018-03-15T11:06:41.593Z,991.99
2018-03-15T11:07:41.383Z,992.07
2018-03-15T11:08:41.384Z,992.01
2018-03-15T11:09:41.386Z,992.02
2018-03-15T11:10:41.601Z,991.98
2018-03-15T11:11:41.381Z,991.99
2018-03-15T11:12:41.371Z,991.99
2018-03-15T11:13:41.380Z,992.01
2018-03-15T11:14:41.379Z,991.95
2018-03-15T11:15:41.368Z,991.90
2018-03-15T11:16:41.361Z,991.92
2018-03-15T11:17:41.558Z,991.88
2018-03-15T11:18:41.572Z,991.95
2018-03-15T11:19:41.339Z,991.85
2018-03-15T11:20:41.355Z,991.96
2018-03-15T11:21:41.367Z,991.88
2018-03-15T11:22:41.359Z,991.85
2018-03-15T11:23:41.416Z,991.85
2018-03-15T11:24:41.350Z,991.94
2018-03-15T11:25:41.352Z,991.87
2018-03-15T11:26:41.329Z,991.82
2018-03-15T11:27:41.327Z,991.82
2018-03-15T11:28:41.317Z,991.83
2018-03-15T11:29:41.519Z,991.79
2018-03-15T11:30:41.318Z,991.88
2018-03-15T11:31:41.531Z,991.78
2018-03-15T11:32:41.528Z,991.78
2018-03-15T11:33:41.302Z,991.78
2018-03-15T11:34:41.502Z,991.78
2018-03-15T11:35:41.295Z,991.79
2018-03-15T11:36:41.495Z,991.74
2018-03-15T11:37:41.311Z,991.71
2018-03-15T11:38:41.283Z,991.71
2018-03-15T11:39:41.296Z,991.69
2018-03-15T11:40:41.293Z,991.74
2018-03-15T11:41:41.332Z,991.74
2018-03-15T11:42:41.311Z,991.76
2018-03-15T11:43:41.282Z,991.78
2018-03-15T11:44:41.487Z,991.77
2018-03-15T11:45:41.264Z,991.83
2018-03-15T11:46:41.488Z,991.79
2018-03-15T11:47:41.461Z,991.75
2018-03-15T11:48:41.270Z,991.79
2018-03-15T11:49:41.471Z,991.73
2018-03-15T11:50:41.265Z,991.72
2018-03-15T11:51:41.270Z,991.69
2018-03-15T11:52:41.246Z,991.67
2018-03-15T11:53:41.245Z,991.71
2018-03-15T11:54:41.242Z,991.68
2018-03-15T11:55:41.237Z,991.72
2018-03-15T11:56:41.256Z,991.62
2018-03-15T11:57:41.245Z,991.68
2018-03-15T11:58:41.456Z,991.64
2018-03-15T11:59:41.237Z,991.67
2018-03-15T12:00:41.283Z,991.65
2018-03-15T12:01:41.274Z,991.57
2018-03-15T12:02:41.422Z,991.59
2018-03-15T12:03:41.226Z,991.57
2018-03-15T12:04:41.224Z,991.61
2018-03-15T12:05:41.238Z,991.51
2018-03-15T12:06:41.410Z,991.55
2018-03-15T12:07:41.271Z,991.58
2018-03-15T12:08:41.212Z,991.58
2018-03-15T12:09:41.426Z,991.61
2018-03-15T12:10:41.399Z,991.60
2018-03-15T12:11:41.406Z,991.66
2018-03-15T12:12:41.202Z,991.59
2018-03-15T12:13:41.426Z,991.61
2018-03-15T12:14:41.417Z,991.62
2018-03-15T12:15:41.196Z,991.64
2018-03-15T12:16:41.387Z,991.67
2018-03-15T12:17:41.396Z,991.60
2018-03-15T12:18:41.183Z,991.62
2018-03-15T12:19:41.185Z,991.66
2018-03-15T12:20:41.166Z,991.60
2018-03-15T12:21:41.367Z,991.61
2018-03-15T12:22:41.163Z,991.59
2018-03-15T12:23:41.183Z,991.58
2018-03-15T12:24:41.375Z,991.52
2018-03-15T12:25:41.355Z,991.52
2018-03-15T12:26:41.149Z,991.47
2018-03-15T12:27:41.158Z,991.45
2018-03-15T12:28:41.142Z,991.45